Time;durP1;ratioP1;P1;durP2;ratioP2;P2;SDS_P1;SDS_P2;PMS_P1;PMS_P2;Temp;Humidity;BMP_temperature;BMP_pressure;BME280_temperature;BME280_humidity;BME280_pressure;Samples;Min_cycle;Max_cycle;Signal;HPM_P1;HPM_P2
2023/08/06 00:00:25;;;;;;;9.82;7.20;;;27.70;68.20;;;;;;5065436;28;20059;-71
2023/08/06 00:02:51;;;;;;;9.38;7.53;;;27.70;68.20;;;;;;5063994;28;20060;-71
2023/08/06 00:05:21;;;;;;;12.65;7.72;;;27.70;68.20;;;;;;5065602;28;20134;-71
2023/08/06 00:07:47;;;;;;;8.40;6.97;;;27.70;68.20;;;;;;5063239;28;20438;-71
2023/08/06 00:10:14;;;;;;;10.05;7.80;;;27.70;68.20;;;;;;5065488;28;20717;-71
2023/08/06 00:12:40;;;;;;;7.68;6.88;;;27.70;68.30;;;;;;5064584;28;20059;-73
2023/08/06 00:15:06;;;;;;;10.35;6.95;;;27.60;68.30;;;;;;5065532;28;20511;-72
2023/08/06 00:17:34;;;;;;;8.10;7.28;;;27.70;68.00;;;;;;5068447;28;20028;-73
2023/08/06 00:20:07;;;;;;;10.35;7.70;;;27.60;68.30;;;;;;5063278;28;20029;-74
2023/08/06 00:22:38;;;;;;;10.68;7.35;;;27.60;67.90;;;;;;5066120;28;20062;-73
2023/08/06 00:25:05;;;;;;;9.30;8.00;;;27.60;67.80;;;;;;5064185;28;20036;-74
2023/08/06 00:27:32;;;;;;;11.10;8.10;;;27.60;67.80;;;;;;5067704;28;20040;-71
2023/08/06 00:29:58;;;;;;;11.82;7.75;;;27.60;67.90;;;;;;5070744;28;20070;-71
2023/08/06 00:32:24;;;;;;;9.98;7.63;;;27.60;68.30;;;;;;5063879;28;20040;-71
2023/08/06 00:34:50;;;;;;;10.75;7.78;;;27.60;68.30;;;;;;5062565;28;20033;-71
2023/08/06 00:37:19;;;;;;;9.80;7.80;;;27.60;68.40;;;;;;5066584;28;20025;-71
2023/08/06 00:39:45;;;;;;;10.70;7.47;;;27.70;68.50;;;;;;5063232;28;20121;-70
2023/08/06 00:42:12;;;;;;;9.63;7.50;;;27.60;68.30;;;;;;5068264;28;20045;-71
2023/08/06 00:44:38;;;;;;;11.05;8.23;;;27.60;68.40;;;;;;5067996;28;20037;-71
2023/08/06 00:47:07;;;;;;;11.88;7.25;;;27.60;68.30;;;;;;5065705;28;20036;-70
2023/08/06 00:49:34;;;;;;;13.73;8.50;;;27.60;68.50;;;;;;5063826;28;20064;-71
2023/08/06 00:52:00;;;;;;;10.38;7.80;;;27.60;68.20;;;;;;5066317;28;20024;-70
2023/08/06 00:54:27;;;;;;;9.73;7.72;;;27.60;68.40;;;;;;5064084;28;20052;-73
2023/08/06 00:56:53;;;;;;;10.40;7.40;;;27.60;68.40;;;;;;5065609;28;20028;-73
2023/08/06 00:59:20;;;;;;;9.93;7.43;;;27.60;68.50;;;;;;5065324;28;20584;-73
2023/08/06 01:01:46;;;;;;;12.57;8.18;;;27.60;68.50;;;;;;5065864;28;20117;-73
2023/08/06 01:04:12;;;;;;;8.95;7.70;;;27.60;68.50;;;;;;5062362;28;20039;-73
2023/08/06 01:07:07;;;;;;;9.98;8.02;;;27.50;68.60;;;;;;5062006;28;20033;-71
2023/08/06 01:09:57;;;;;;;9.18;8.00;;;27.60;68.30;;;;;;5061538;28;20032;-72
2023/08/06 01:12:48;;;;;;;11.57;7.53;;;27.60;68.70;;;;;;5018151;28;20120;-72
2023/08/06 01:15:19;;;;;;;10.07;7.60;;;27.50;68.80;;;;;;5002203;28;20022;-72
2023/08/06 01:17:46;;;;;;;9.75;7.25;;;27.60;68.80;;;;;;5000075;28;20042;-72
2023/08/06 01:20:12;;;;;;;9.55;7.88;;;27.60;68.80;;;;;;5019282;28;20029;-71
2023/08/06 01:22:38;;;;;;;12.65;7.97;;;27.50;68.80;;;;;;5016040;28;20044;-72
2023/08/06 01:25:04;;;;;;;10.05;8.07;;;27.50;68.80;;;;;;5005128;28;20033;-71
2023/08/06 01:27:49;;;;;;;8.95;7.40;;;27.50;68.70;;;;;;5005044;28;20041;-71
2023/08/06 01:30:19;;;;;;;11.18;7.38;;;27.50;68.70;;;;;;4988725;28;20114;-72
2023/08/06 01:32:49;;;;;;;9.70;7.55;;;27.50;68.90;;;;;;5000321;28;20262;-72
2023/08/06 01:35:17;;;;;;;8.63;7.30;;;27.50;68.90;;;;;;4999319;28;20037;-71
2023/08/06 01:37:43;;;;;;;10.30;7.53;;;27.50;69.00;;;;;;5018243;28;20037;-70
2023/08/06 01:40:13;;;;;;;11.80;8.20;;;27.50;68.80;;;;;;5017635;28;20438;-71
2023/08/06 01:42:40;;;;;;;12.07;8.27;;;27.40;68.60;;;;;;5017259;28;20600;-71
2023/08/06 01:45:08;;;;;;;10.75;7.93;;;27.50;68.70;;;;;;5018089;28;20455;-71
2023/08/06 01:47:34;;;;;;;9.63;7.60;;;27.40;68.70;;;;;;5016488;28;21197;-71
2023/08/06 01:50:00;;;;;;;11.13;7.85;;;27.40;69.30;;;;;;5053095;28;20044;-71
2023/08/06 01:52:27;;;;;;;10.88;7.90;;;27.50;69.00;;;;;;5064353;28;20064;-71
2023/08/06 01:54:54;;;;;;;9.25;7.70;;;27.40;69.20;;;;;;5060791;28;20091;-71
2023/08/06 01:57:19;;;;;;;11.38;7.97;;;27.50;69.00;;;;;;5063484;28;20411;-71
2023/08/06 01:59:45;;;;;;;12.07;8.05;;;27.40;69.00;;;;;;5061040;28;20055;-71
2023/08/06 02:02:12;;;;;;;10.70;7.70;;;27.40;69.20;;;;;;5059726;28;20040;-71
2023/08/06 02:04:38;;;;;;;8.95;7.82;;;27.50;69.40;;;;;;5064277;28;20060;-72
2023/08/06 02:07:05;;;;;;;12.85;8.05;;;27.50;69.10;;;;;;5061527;28;20087;-72
2023/08/06 02:09:31;;;;;;;11.05;7.70;;;27.40;69.40;;;;;;5060510;28;20029;-71
2023/08/06 02:11:57;;;;;;;10.00;7.25;;;27.40;69.30;;;;;;5064876;28;20562;-72
2023/08/06 02:14:23;;;;;;;8.32;7.53;;;27.40;70.00;;;;;;5061236;28;20157;-71
2023/08/06 02:16:50;;;;;;;10.35;8.15;;;27.40;69.40;;;;;;5066904;28;20036;-71
2023/08/06 02:19:16;;;;;;;9.85;8.15;;;27.40;69.20;;;;;;5059234;28;20503;-72
2023/08/06 02:21:42;;;;;;;11.25;8.38;;;27.40;69.20;;;;;;5069165;28;20046;-71
2023/08/06 02:24:08;;;;;;;10.90;8.20;;;27.40;69.30;;;;;;5046341;28;20033;-71
2023/08/06 02:26:33;;;;;;;11.18;8.38;;;27.50;69.40;;;;;;5060605;28;20029;-71
2023/08/06 02:28:59;;;;;;;9.23;8.02;;;27.50;69.10;;;;;;5062517;28;20119;-71
2023/08/06 02:31:25;;;;;;;8.95;7.30;;;27.50;69.70;;;;;;5062229;28;20060;-71
2023/08/06 02:33:53;;;;;;;9.85;7.90;;;27.50;69.50;;;;;;5066236;28;20545;-71
2023/08/06 02:36:19;;;;;;;11.50;8.45;;;27.50;69.50;;;;;;5065322;28;20033;-71
2023/08/06 02:38:45;;;;;;;11.55;8.73;;;27.50;69.50;;;;;;5062744;28;20036;-71
2023/08/06 02:41:11;;;;;;;10.38;8.15;;;27.50;69.00;;;;;;5062789;28;20127;-71
2023/08/06 02:43:37;;;;;;;10.45;8.18;;;27.50;68.90;;;;;;5061249;28;20089;-71
2023/08/06 02:46:03;;;;;;;13.65;8.02;;;27.60;68.90;;;;;;5060165;28;20040;-70
2023/08/06 02:48:29;;;;;;;11.88;8.70;;;27.60;68.80;;;;;;5065719;28;20053;-70
2023/08/06 02:51:01;;;;;;;13.38;8.65;;;27.60;68.70;;;;;;5067431;28;20082;-70
2023/08/06 02:53:30;;;;;;;12.60;8.75;;;27.60;68.70;;;;;;5067404;28;20055;-71
2023/08/06 02:55:58;;;;;;;11.18;8.90;;;27.60;68.80;;;;;;5065662;28;20033;-71
2023/08/06 02:58:32;;;;;;;11.60;8.67;;;27.60;68.70;;;;;;5065836;28;20029;-72
2023/08/06 03:01:18;;;;;;;9.60;7.82;;;27.60;68.80;;;;;;5057596;28;20071;-71
2023/08/06 03:03:51;;;;;;;11.82;8.57;;;27.60;69.20;;;;;;5063916;28;20037;-71
2023/08/06 03:06:23;;;;;;;10.35;8.02;;;27.60;68.90;;;;;;5063859;28;20097;-70
2023/08/06 03:08:53;;;;;;;9.95;8.40;;;27.50;69.00;;;;;;5065480;28;20271;-71
2023/08/06 03:11:19;;;;;;;11.95;8.48;;;27.50;69.10;;;;;;5063670;28;20039;-71
2023/08/06 03:13:50;;;;;;;12.93;8.70;;;27.50;69.20;;;;;;5065923;28;20545;-71
2023/08/06 03:16:16;;;;;;;10.30;7.45;;;27.50;69.30;;;;;;5065983;28;20040;-72
2023/08/06 03:18:43;;;;;;;11.43;8.60;;;27.50;69.10;;;;;;5068841;28;20482;-70
2023/08/06 03:21:10;;;;;;;11.07;7.75;;;27.50;69.30;;;;;;5081758;28;20491;-71
2023/08/06 03:23:36;;;;;;;12.38;7.85;;;27.50;69.20;;;;;;5069283;28;20036;-71
2023/08/06 03:26:02;;;;;;;12.55;8.05;;;27.50;69.90;;;;;;5067629;28;20114;-71
2023/08/06 03:28:30;;;;;;;10.45;7.88;;;27.50;69.10;;;;;;5079927;28;20039;-71
2023/08/06 03:31:03;;;;;;;10.68;8.23;;;27.50;69.30;;;;;;5067752;28;20115;-71
2023/08/06 03:33:36;;;;;;;10.90;7.72;;;27.50;69.30;;;;;;5037463;28;20469;-71
2023/08/06 03:36:04;;;;;;;12.15;7.82;;;27.50;69.30;;;;;;5064562;28;20467;-74
2023/08/06 03:38:32;;;;;;;10.73;7.88;;;27.50;69.30;;;;;;5063023;28;20033;-74
2023/08/06 03:40:59;;;;;;;11.95;8.30;;;27.50;69.50;;;;;;5064510;28;20039;-74
2023/08/06 03:43:25;;;;;;;9.80;7.80;;;27.40;69.40;;;;;;5063451;28;20029;-74
2023/08/06 03:45:51;;;;;;;13.60;8.18;;;27.40;69.50;;;;;;5068879;28;20408;-73
2023/08/06 03:48:18;;;;;;;10.35;8.15;;;27.40;69.60;;;;;;5064659;28;20532;-70
2023/08/06 03:50:44;;;;;;;9.40;7.55;;;27.50;70.00;;;;;;5066676;28;20071;-71
2023/08/06 03:53:13;;;;;;;9.70;7.53;;;27.50;69.70;;;;;;5065642;28;20029;-71
2023/08/06 03:55:39;;;;;;;10.40;7.40;;;27.50;70.10;;;;;;5064168;28;20403;-71
2023/08/06 03:58:05;;;;;;;9.63;7.53;;;27.50;70.20;;;;;;5061507;28;20416;-71
2023/08/06 04:00:31;;;;;;;10.43;7.65;;;27.50;70.00;;;;;;5065439;28;20021;-71
2023/08/06 04:02:57;;;;;;;11.95;7.10;;;27.50;69.60;;;;;;5066200;28;20043;-73
2023/08/06 04:05:23;;;;;;;12.73;7.10;;;27.50;69.70;;;;;;5068937;28;20178;-73
2023/08/06 04:07:49;;;;;;;9.77;7.70;;;27.60;69.60;;;;;;5062418;28;20037;-73
2023/08/06 04:10:15;;;;;;;9.25;7.63;;;27.60;69.50;;;;;;5067767;28;20058;-73
2023/08/06 04:12:41;;;;;;;9.50;7.60;;;27.70;69.40;;;;;;5065909;28;20074;-73
2023/08/06 04:15:07;;;;;;;9.98;7.13;;;27.80;69.20;;;;;;5064884;28;20131;-70
2023/08/06 04:17:33;;;;;;;12.05;7.40;;;27.90;69.10;;;;;;5062475;28;20029;-71
2023/08/06 04:19:59;;;;;;;9.38;7.03;;;27.90;68.90;;;;;;5064216;28;20037;-71
2023/08/06 04:22:25;;;;;;;12.63;7.32;;;28.00;68.80;;;;;;5064211;28;20033;-70
2023/08/06 04:24:51;;;;;;;8.85;7.50;;;28.00;68.70;;;;;;5067365;28;20036;-71
2023/08/06 04:27:19;;;;;;;11.07;7.13;;;28.10;68.60;;;;;;5063751;28;20035;-71
2023/08/06 04:29:46;;;;;;;10.95;7.22;;;28.10;68.50;;;;;;5065334;28;20653;-70
2023/08/06 04:32:13;;;;;;;8.32;7.07;;;28.20;68.40;;;;;;5065842;28;20037;-71
2023/08/06 04:34:44;;;;;;;10.05;7.20;;;28.30;68.40;;;;;;5065278;28;20040;-71
2023/08/06 04:37:10;;;;;;;10.55;6.63;;;28.30;68.30;;;;;;5064357;28;20047;-71
2023/08/06 04:39:37;;;;;;;9.80;6.63;;;28.40;68.20;;;;;;5064171;28;20039;-72
2023/08/06 04:42:04;;;;;;;9.75;7.38;;;28.40;68.00;;;;;;5068063;28;20033;-73
2023/08/06 04:44:30;;;;;;;9.57;6.82;;;28.50;67.90;;;;;;5064181;28;20056;-73
2023/08/06 04:46:56;;;;;;;7.90;7.13;;;28.50;67.80;;;;;;5064685;28;20112;-74
2023/08/06 04:49:22;;;;;;;10.40;7.03;;;28.60;67.90;;;;;;5064746;28;20049;-74
2023/08/06 04:51:48;;;;;;;9.57;6.72;;;28.70;67.80;;;;;;5065956;28;20177;-73
2023/08/06 04:54:14;;;;;;;9.75;6.85;;;28.70;67.70;;;;;;5063001;28;20049;-71
2023/08/06 04:56:39;;;;;;;9.40;7.03;;;28.80;67.70;;;;;;5065728;28;20032;-71
2023/08/06 04:59:05;;;;;;;7.85;6.60;;;28.80;67.60;;;;;;5065042;28;20109;-70
2023/08/06 05:01:32;;;;;;;11.05;6.90;;;28.90;67.60;;;;;;5063981;28;20492;-72
2023/08/06 05:03:57;;;;;;;8.85;6.35;;;28.90;67.30;;;;;;5066381;28;20028;-71
2023/08/06 05:06:23;;;;;;;7.50;6.38;;;29.00;67.30;;;;;;5065151;28;20427;-70
2023/08/06 05:08:49;;;;;;;8.98;6.57;;;29.10;67.10;;;;;;5066219;28;20031;-71
2023/08/06 05:11:15;;;;;;;10.35;6.93;;;29.20;67.00;;;;;;5062838;28;20059;-71
2023/08/06 05:13:41;;;;;;;8.98;6.28;;;29.30;67.00;;;;;;5065184;28;20524;-71
2023/08/06 05:16:07;;;;;;;8.98;6.43;;;29.40;66.80;;;;;;5065359;28;20218;-71
2023/08/06 05:18:34;;;;;;;7.65;6.13;;;29.40;66.60;;;;;;5065547;28;20039;-72
2023/08/06 05:21:00;;;;;;;9.27;6.82;;;29.50;66.50;;;;;;5067445;28;20097;-72
2023/08/06 05:23:26;;;;;;;9.93;6.57;;;29.60;66.10;;;;;;5063010;28;20495;-71
2023/08/06 05:25:52;;;;;;;7.53;6.70;;;29.60;66.00;;;;;;5061586;28;20574;-72
2023/08/06 05:28:18;;;;;;;11.98;6.85;;;29.60;65.80;;;;;;5063075;28;20052;-72
2023/08/06 05:30:43;;;;;;;10.00;6.72;;;29.60;65.80;;;;;;5066842;28;20591;-72
2023/08/06 05:33:09;;;;;;;8.88;6.45;;;29.80;66.30;;;;;;5061952;28;20063;-72
2023/08/06 05:35:35;;;;;;;7.15;6.45;;;29.80;65.50;;;;;;5064351;28;20032;-71
2023/08/06 05:38:01;;;;;;;9.40;6.70;;;29.80;65.50;;;;;;5064219;28;20025;-71
2023/08/06 05:40:27;;;;;;;9.32;6.65;;;29.80;65.60;;;;;;5062743;28;20120;-71
2023/08/06 05:42:54;;;;;;;7.40;6.35;;;29.90;65.60;;;;;;5060849;28;20131;-72
2023/08/06 05:45:20;;;;;;;10.40;6.22;;;30.00;65.20;;;;;;5065536;28;20486;-72
2023/08/06 05:47:48;;;;;;;8.93;5.97;;;30.00;65.20;;;;;;5061092;28;20096;-71
2023/08/06 05:50:14;;;;;;;9.35;5.72;;;30.00;65.10;;;;;;5063239;28;20033;-71
2023/08/06 05:52:40;;;;;;;7.93;6.28;;;30.10;65.30;;;;;;5064309;28;20059;-72
2023/08/06 05:55:06;;;;;;;10.27;6.45;;;30.10;65.20;;;;;;5064433;28;20037;-72
2023/08/06 05:57:32;;;;;;;7.20;5.90;;;30.20;65.00;;;;;;5059822;28;20067;-72
2023/08/06 05:59:58;;;;;;;8.68;6.13;;;30.30;64.60;;;;;;5065258;28;20060;-71
2023/08/06 06:02:24;;;;;;;8.32;6.15;;;30.40;64.20;;;;;;5062443;28;20028;-71
2023/08/06 06:04:50;;;;;;;10.32;6.13;;;30.40;64.00;;;;;;5062466;28;20135;-71
2023/08/06 06:07:16;;;;;;;6.75;6.05;;;30.50;63.80;;;;;;5065380;28;20036;-70
2023/08/06 06:09:42;;;;;;;10.75;6.32;;;30.50;63.90;;;;;;5067072;28;20036;-71
2023/08/06 06:12:08;;;;;;;7.82;6.30;;;30.50;64.00;;;;;;5065620;28;20051;-70
2023/08/06 06:14:34;;;;;;;6.80;6.10;;;30.60;63.70;;;;;;5065395;28;20463;-71
2023/08/06 06:17:00;;;;;;;10.57;5.97;;;30.70;63.60;;;;;;5064626;28;20032;-71
2023/08/06 06:19:26;;;;;;;6.03;5.43;;;30.80;63.10;;;;;;5066661;28;20064;-72
2023/08/06 06:21:53;;;;;;;8.90;5.93;;;30.90;62.70;;;;;;5065084;28;20068;-71
2023/08/06 06:24:19;;;;;;;7.80;5.63;;;30.90;62.80;;;;;;5067949;28;20039;-71
2023/08/06 06:26:45;;;;;;;12.57;5.95;;;31.00;62.40;;;;;;5069588;28;20155;-71
2023/08/06 06:29:11;;;;;;;7.03;5.57;;;31.00;62.50;;;;;;5066887;28;20044;-72
2023/08/06 06:31:37;;;;;;;10.48;5.60;;;30.90;62.60;;;;;;5069081;28;20036;-71
2023/08/06 06:34:02;;;;;;;8.27;5.68;;;30.90;62.80;;;;;;5064885;28;20098;-70
2023/08/06 06:36:28;;;;;;;7.60;6.13;;;30.80;63.00;;;;;;5068327;28;20161;-70
2023/08/06 06:38:54;;;;;;;6.85;5.75;;;30.80;63.30;;;;;;5068943;28;20445;-71
2023/08/06 06:41:20;;;;;;;6.35;5.43;;;30.80;63.40;;;;;;5068756;28;20060;-71
2023/08/06 06:43:46;;;;;;;10.85;5.60;;;30.70;63.40;;;;;;5065765;28;20504;-71
2023/08/06 06:46:12;;;;;;;7.20;5.60;;;30.80;63.40;;;;;;5066451;28;20082;-71
2023/08/06 06:48:38;;;;;;;7.93;5.57;;;30.70;63.50;;;;;;5065967;28;20096;-72
2023/08/06 06:51:04;;;;;;;7.47;5.30;;;30.60;63.60;;;;;;5066039;28;20039;-71
2023/08/06 06:53:30;;;;;;;7.90;5.55;;;30.60;63.80;;;;;;5068682;28;20411;-72
2023/08/06 06:56:01;;;;;;;7.45;5.07;;;30.50;63.90;;;;;;5066055;28;20093;-73
2023/08/06 06:58:27;;;;;;;7.20;5.63;;;30.70;63.00;;;;;;5069300;28;20098;-73
2023/08/06 07:00:53;;;;;;;9.73;5.70;;;30.70;63.30;;;;;;5068406;28;20515;-73
2023/08/06 07:03:22;;;;;;;6.43;5.20;;;30.70;63.20;;;;;;5068110;28;20081;-73
2023/08/06 07:05:49;;;;;;;7.22;5.53;;;30.60;63.40;;;;;;5067244;28;20045;-74
2023/08/06 07:08:16;;;;;;;6.68;5.35;;;30.60;63.50;;;;;;5067023;28;20040;-71
2023/08/06 07:10:43;;;;;;;6.75;5.22;;;30.60;63.50;;;;;;5072378;28;20536;-72
2023/08/06 07:13:10;;;;;;;6.72;5.00;;;30.60;63.60;;;;;;5068632;28;20032;-72
2023/08/06 07:15:36;;;;;;;15.38;5.30;;;30.70;62.60;;;;;;5065552;28;20036;-71
2023/08/06 07:18:02;;;;;;;7.22;5.53;;;30.70;63.00;;;;;;5067064;28;20063;-72
2023/08/06 07:20:31;;;;;;;8.68;5.32;;;30.60;62.90;;;;;;5063999;28;20052;-72
2023/08/06 07:22:59;;;;;;;8.75;5.05;;;30.60;63.10;;;;;;5063194;28;20036;-74
2023/08/06 07:25:25;;;;;;;5.65;4.78;;;30.60;63.10;;;;;;5067149;28;20825;-73
2023/08/06 07:27:50;;;;;;;5.85;4.75;;;30.60;63.10;;;;;;5067436;28;20134;-74
2023/08/06 07:30:17;;;;;;;6.15;4.95;;;30.70;62.80;;;;;;5064482;28;20118;-74
2023/08/06 07:32:43;;;;;;;5.55;4.63;;;30.70;62.80;;;;;;5065122;28;20044;-72
2023/08/06 07:35:12;;;;;;;5.97;4.70;;;30.70;62.90;;;;;;5068122;28;20455;-73
2023/08/06 07:37:39;;;;;;;5.97;4.55;;;30.70;62.60;;;;;;5065929;28;20024;-73
2023/08/06 07:40:05;;;;;;;8.57;4.55;;;30.70;62.50;;;;;;5064712;28;20048;-73
2023/08/06 07:42:31;;;;;;;5.00;4.50;;;30.60;63.30;;;;;;5065464;28;20178;-73
2023/08/06 07:44:59;;;;;;;9.20;4.82;;;30.60;62.70;;;;;;5070379;28;20024;-73
2023/08/06 07:47:25;;;;;;;12.50;4.57;;;30.50;62.70;;;;;;5064789;28;20471;-72
2023/08/06 07:49:51;;;;;;;6.70;4.70;;;30.60;62.70;;;;;;5066755;28;20068;-72
2023/08/06 07:52:17;;;;;;;6.32;4.57;;;30.60;62.70;;;;;;5068063;28;20040;-74
2023/08/06 07:54:43;;;;;;;5.88;4.53;;;30.60;62.80;;;;;;5064472;28;20113;-73
2023/08/06 07:57:09;;;;;;;6.22;4.85;;;30.60;62.70;;;;;;5066967;28;20036;-72
2023/08/06 07:59:35;;;;;;;7.80;5.10;;;30.50;62.80;;;;;;5064640;28;20032;-71
2023/08/06 08:02:01;;;;;;;5.80;4.47;;;30.50;62.90;;;;;;5064170;28;20577;-72
2023/08/06 08:04:27;;;;;;;6.65;4.40;;;30.50;62.90;;;;;;5067860;28;20029;-71
2023/08/06 08:06:53;;;;;;;5.70;4.32;;;30.50;62.70;;;;;;5069246;28;20040;-73
2023/08/06 08:09:19;;;;;;;7.53;4.55;;;30.50;62.50;;;;;;5064112;28;20032;-72
2023/08/06 08:11:45;;;;;;;4.68;4.13;;;30.50;62.20;;;;;;5067634;28;20130;-71
2023/08/06 08:14:11;;;;;;;5.50;4.43;;;30.50;62.30;;;;;;5065045;28;20129;-71
2023/08/06 08:16:37;;;;;;;8.27;4.60;;;30.50;62.40;;;;;;5067606;28;20480;-72
2023/08/06 08:19:03;;;;;;;5.43;4.30;;;30.40;62.30;;;;;;5066486;28;20033;-72
2023/08/06 08:21:30;;;;;;;4.80;4.30;;;30.50;62.30;;;;;;5064765;28;20115;-71
2023/08/06 08:23:55;;;;;;;6.03;4.28;;;30.40;62.50;;;;;;5064635;28;20029;-72
2023/08/06 08:26:22;;;;;;;7.50;4.78;;;30.40;62.30;;;;;;5065687;28;20039;-72
2023/08/06 08:28:48;;;;;;;5.85;4.20;;;30.40;62.20;;;;;;5064385;28;20036;-73
2023/08/06 08:31:14;;;;;;;5.57;4.40;;;30.40;62.20;;;;;;5067044;28;20044;-73
2023/08/06 08:33:40;;;;;;;4.80;3.97;;;30.30;62.10;;;;;;5062116;28;20110;-71
2023/08/06 08:36:06;;;;;;;5.28;4.10;;;30.40;62.30;;;;;;5066212;28;20036;-72
2023/08/06 08:38:32;;;;;;;4.63;4.10;;;30.30;62.20;;;;;;5065093;28;20530;-72
2023/08/06 08:40:58;;;;;;;4.90;4.40;;;30.30;62.20;;;;;;5067806;28;20119;-72
2023/08/06 08:43:24;;;;;;;5.50;3.90;;;30.30;62.10;;;;;;5065731;28;20264;-72
2023/08/06 08:45:52;;;;;;;6.25;4.30;;;30.30;62.00;;;;;;5064568;28;20044;-72
2023/08/06 08:48:19;;;;;;;5.75;3.88;;;30.30;62.00;;;;;;5062718;28;20032;-72
2023/08/06 08:50:46;;;;;;;5.07;3.97;;;30.40;61.80;;;;;;5066488;28;20040;-72
2023/08/06 08:53:15;;;;;;;4.00;3.60;;;30.30;61.90;;;;;;5064962;28;20049;-72
2023/08/06 08:55:44;;;;;;;4.95;3.80;;;30.30;62.00;;;;;;5064597;28;20067;-72
2023/08/06 08:58:10;;;;;;;4.43;4.00;;;30.30;62.10;;;;;;5067693;28;20036;-72
2023/08/06 09:00:36;;;;;;;3.90;3.60;;;30.30;62.00;;;;;;5064664;28;20133;-72
2023/08/06 09:03:06;;;;;;;4.50;3.65;;;30.30;62.10;;;;;;5064817;28;20114;-72
2023/08/06 09:05:33;;;;;;;4.50;3.92;;;30.30;62.20;;;;;;5064905;28;20451;-72
2023/08/06 09:08:05;;;;;;;3.97;3.60;;;30.30;62.20;;;;;;5065865;28;20056;-72
2023/08/06 09:10:31;;;;;;;4.82;4.13;;;30.30;62.30;;;;;;5063502;28;20036;-72
2023/08/06 09:12:58;;;;;;;4.00;3.53;;;30.30;62.50;;;;;;5078826;28;20036;-73
2023/08/06 09:15:28;;;;;;;5.53;3.95;;;30.20;62.60;;;;;;5063755;28;21452;-73
2023/08/06 09:17:54;;;;;;;4.15;3.75;;;30.30;62.80;;;;;;5065222;28;20025;-72
2023/08/06 09:20:20;;;;;;;4.75;4.15;;;30.20;62.90;;;;;;5064212;28;20525;-70
2023/08/06 09:22:48;;;;;;;4.70;3.85;;;30.20;63.00;;;;;;5067951;28;20530;-71
2023/08/06 09:25:25;;;;;;;4.90;4.15;;;30.20;63.10;;;;;;5065924;28;20056;-72
2023/08/06 09:27:52;;;;;;;4.53;3.83;;;30.20;63.20;;;;;;5061796;28;20037;-72
2023/08/06 09:30:32;;;;;;;4.40;4.00;;;30.20;63.20;;;;;;5065044;28;20591;-71
2023/08/06 09:32:58;;;;;;;4.47;4.05;;;30.20;63.30;;;;;;5065671;28;20538;-71
2023/08/06 09:35:24;;;;;;;5.00;4.40;;;30.20;63.40;;;;;;5061839;28;20037;-71
2023/08/06 09:37:50;;;;;;;4.93;4.30;;;30.30;63.50;;;;;;5062406;28;20139;-72
2023/08/06 09:40:30;;;;;;;5.97;4.50;;;30.20;63.50;;;;;;5065172;28;20500;-72
2023/08/06 09:42:57;;;;;;;6.45;4.50;;;30.30;63.60;;;;;;5060627;28;20044;-72
2023/08/06 09:45:35;;;;;;;5.05;4.20;;;30.20;63.60;;;;;;5064865;28;20090;-71
2023/08/06 09:48:06;;;;;;;5.15;4.65;;;30.20;63.80;;;;;;5066038;28;20052;-72
2023/08/06 09:50:36;;;;;;;5.32;4.82;;;30.20;63.80;;;;;;5063045;28;20036;-74
2023/08/06 09:53:03;;;;;;;5.93;4.70;;;30.20;63.90;;;;;;5063728;28;20532;-72
2023/08/06 09:55:29;;;;;;;5.75;4.22;;;30.20;64.00;;;;;;5062907;28;20086;-74
2023/08/06 09:57:56;;;;;;;5.85;4.78;;;30.20;64.10;;;;;;5065484;28;20116;-73
2023/08/06 10:00:23;;;;;;;6.03;4.82;;;30.20;64.10;;;;;;5065780;28;20539;-70
2023/08/06 10:02:51;;;;;;;5.22;4.72;;;30.20;64.20;;;;;;5064448;28;20711;-71
2023/08/06 10:05:18;;;;;;;5.68;4.70;;;30.20;64.30;;;;;;5063970;28;20036;-71
2023/08/06 10:07:46;;;;;;;6.22;4.55;;;30.20;64.40;;;;;;5063552;28;20076;-71
2023/08/06 10:10:12;;;;;;;5.28;4.85;;;30.20;64.40;;;;;;5065649;28;20029;-71
2023/08/06 10:12:42;;;;;;;5.93;5.00;;;30.20;64.50;;;;;;5065518;28;20043;-72
2023/08/06 10:15:12;;;;;;;6.45;4.95;;;30.20;64.60;;;;;;5060934;28;20101;-71
2023/08/06 10:17:40;;;;;;;6.47;4.97;;;30.20;64.70;;;;;;5062885;28;20393;-72
2023/08/06 10:20:09;;;;;;;5.78;5.15;;;30.10;64.80;;;;;;5063541;28;20032;-71
2023/08/06 10:22:36;;;;;;;6.05;4.85;;;30.10;64.90;;;;;;5062905;28;20044;-72
2023/08/06 10:25:05;;;;;;;5.68;4.85;;;30.10;65.00;;;;;;5063515;28;20040;-72
2023/08/06 10:27:38;;;;;;;5.60;5.10;;;30.10;65.00;;;;;;5061474;28;20021;-71
2023/08/06 10:30:25;;;;;;;5.63;4.93;;;30.10;65.10;;;;;;5064175;28;20301;-72
2023/08/06 10:32:53;;;;;;;6.22;5.20;;;30.10;65.20;;;;;;5062711;28;20407;-72
2023/08/06 10:35:34;;;;;;;5.75;5.20;;;30.10;65.30;;;;;;5061269;28;20135;-72
2023/08/06 10:38:17;;;;;;;5.00;4.60;;;30.10;65.30;;;;;;5063663;28;20024;-72
2023/08/06 10:40:50;;;;;;;5.47;4.95;;;30.10;65.20;;;;;;5063591;28;20039;-72
2023/08/06 10:43:27;;;;;;;5.75;5.05;;;30.10;65.20;;;;;;5064200;28;20041;-71
2023/08/06 10:45:54;;;;;;;5.70;4.88;;;30.10;65.20;;;;;;5062523;28;20419;-71
2023/08/06 10:48:33;;;;;;;6.45;5.05;;;30.20;65.00;;;;;;5064922;28;20029;-71
2023/08/06 10:51:00;;;;;;;5.38;4.88;;;30.20;65.10;;;;;;5062411;28;20193;-71
2023/08/06 10:53:26;;;;;;;8.65;5.22;;;30.10;65.10;;;;;;5064275;28;20055;-71
2023/08/06 10:55:52;;;;;;;6.68;4.78;;;30.10;65.40;;;;;;5063835;28;20037;-70
2023/08/06 10:58:18;;;;;;;7.55;5.40;;;30.10;65.40;;;;;;5064385;28;20387;-71
2023/08/06 11:00:45;;;;;;;5.32;4.70;;;30.10;65.50;;;;;;5065611;28;21506;-69
2023/08/06 11:03:11;;;;;;;5.50;5.00;;;30.10;65.60;;;;;;5063260;28;20079;-71
2023/08/06 11:05:37;;;;;;;6.43;4.93;;;30.10;65.40;;;;;;5063460;28;20090;-70
2023/08/06 11:08:03;;;;;;;6.55;4.82;;;30.10;65.40;;;;;;5060683;28;20081;-71
2023/08/06 11:10:29;;;;;;;4.97;4.47;;;30.10;65.50;;;;;;5068569;28;20075;-73
2023/08/06 11:13:00;;;;;;;6.28;5.05;;;30.10;65.60;;;;;;5067648;28;20064;-73
2023/08/06 11:15:26;;;;;;;6.15;5.03;;;30.00;65.60;;;;;;5066483;28;20033;-72
2023/08/06 11:17:52;;;;;;;5.53;5.03;;;30.10;65.70;;;;;;5068219;28;20120;-72
2023/08/06 11:20:22;;;;;;;5.88;4.68;;;30.10;65.70;;;;;;5051558;28;20507;-70
2023/08/06 11:22:48;;;;;;;5.43;4.93;;;30.00;65.70;;;;;;5065102;28;20519;-70
2023/08/06 11:25:14;;;;;;;7.07;4.70;;;30.10;65.80;;;;;;5067662;28;20044;-70
2023/08/06 11:27:40;;;;;;;7.28;5.13;;;30.00;65.80;;;;;;5065731;28;20032;-70
2023/08/06 11:30:06;;;;;;;5.75;5.18;;;30.00;65.90;;;;;;5065479;28;20024;-70
2023/08/06 11:32:33;;;;;;;5.25;4.75;;;30.00;65.90;;;;;;5067350;28;20029;-70
2023/08/06 11:34:59;;;;;;;7.05;5.28;;;30.10;65.90;;;;;;5065912;28;20043;-69
2023/08/06 11:37:25;;;;;;;5.93;5.10;;;30.10;65.80;;;;;;5062823;28;20036;-70
2023/08/06 11:39:51;;;;;;;5.72;4.68;;;30.10;65.80;;;;;;5065358;28;20045;-70
2023/08/06 11:42:17;;;;;;;6.43;5.28;;;30.10;65.60;;;;;;5067051;28;20495;-70
2023/08/06 11:44:46;;;;;;;6.10;5.50;;;30.10;65.40;;;;;;5067523;28;20081;-70
2023/08/06 11:47:15;;;;;;;6.15;4.50;;;30.10;65.40;;;;;;5065357;28;20642;-70
2023/08/06 11:49:47;;;;;;;7.50;5.20;;;30.10;65.40;;;;;;5066235;28;20067;-70
2023/08/06 11:52:15;;;;;;;5.07;4.68;;;30.10;65.40;;;;;;5068362;28;20039;-70
2023/08/06 11:54:42;;;;;;;5.20;4.75;;;30.10;65.40;;;;;;5063782;28;20064;-70
2023/08/06 11:57:09;;;;;;;9.65;4.88;;;30.10;65.40;;;;;;5063416;28;20777;-70
2023/08/06 11:59:36;;;;;;;8.23;4.97;;;30.00;65.30;;;;;;5067909;28;20037;-70
2023/08/06 12:02:05;;;;;;;5.70;4.75;;;30.00;65.30;;;;;;5065722;28;20040;-72
2023/08/06 12:04:32;;;;;;;4.93;4.38;;;30.10;65.40;;;;;;5064999;28;20040;-72
2023/08/06 12:07:10;;;;;;;5.50;5.00;;;30.00;65.40;;;;;;5066276;28;20093;-71
2023/08/06 12:09:36;;;;;;;5.40;4.90;;;30.00;65.50;;;;;;5063006;28;20051;-73
2023/08/06 12:12:03;;;;;;;5.78;4.78;;;30.00;65.50;;;;;;5067631;28;20577;-72
2023/08/06 12:14:29;;;;;;;5.20;4.70;;;30.00;65.40;;;;;;5066245;28;20051;-70
2023/08/06 12:16:55;;;;;;;5.68;4.53;;;30.00;65.30;;;;;;5065598;28;20032;-70
2023/08/06 12:19:23;;;;;;;7.07;4.68;;;30.10;64.80;;;;;;5068858;28;20055;-70
2023/08/06 12:21:49;;;;;;;4.95;4.40;;;30.10;64.70;;;;;;5065909;28;20043;-69
2023/08/06 12:24:15;;;;;;;5.90;4.85;;;30.10;64.90;;;;;;5064422;28;20041;-70
2023/08/06 12:26:40;;;;;;;6.85;4.85;;;30.00;64.90;;;;;;5065090;28;20040;-70
2023/08/06 12:29:07;;;;;;;5.35;4.85;;;30.00;65.00;;;;;;5067044;28;20128;-70
2023/08/06 12:31:33;;;;;;;5.38;4.32;;;30.00;65.20;;;;;;5065060;28;20071;-70
2023/08/06 12:33:59;;;;;;;5.50;4.80;;;30.10;65.10;;;;;;5063098;28;20072;-70
2023/08/06 12:36:24;;;;;;;4.97;4.60;;;30.10;65.20;;;;;;5064466;28;20209;-70
2023/08/06 12:38:50;;;;;;;5.38;4.75;;;30.10;65.30;;;;;;5063092;28;20058;-70
2023/08/06 12:41:17;;;;;;;5.82;4.65;;;30.10;65.30;;;;;;5065362;28;20128;-70
2023/08/06 12:43:43;;;;;;;5.15;4.65;;;30.10;65.10;;;;;;5066525;28;20025;-70